Strona główna
METAR-TAF:

METAR-TAF

Lotnisko :

Seyresse

Dax, Francja

Szerokość geograficzna: 43-41N, Długość geograficzna: 001-04W, wysokość: 32 m

Aktualna obserwacja pogody

Raport powstał 23 minut temu, godzina 01:00 UTC
Wiatr 4 kt od zachodnio-południowy zachód, zmienny między południowy zachód i zachód
Temperatura 23°C
Wilgotność 89%
Ciśnienie 1016 hPa
Widzialność: 6000 m

METAR: LFBY 240100Z AUTO 25004KT 220V280 6000 // ////// 23/21 Q1016

czas: 03:23 (01:23 UTC)

Prognoza

Raport powstał 17 godziny i 23 minut temu, godzina 08:00 UTC
Prognoza ważna od 23 godzina 09 UTC do 23 godzina 18 UTC
Wiatr 5 kt od wschód
Widzialność 10 km lub więcej
Brak chmur poniżej 1500 m i brak chmur cumulonimbus

TAF: LFBY 230800Z 2309/2318 09005KT CAVOK

Obserwacja i prognoza pogody dla ponad 4000 lotnisk (raport METAR i TAF).

Dostępne stacje oznaczono żółtymi i czerwonymi punktami na mapie.

Najedź kursorem aby zobaczyć nazwę stacji.

Kliknij aby zobaczyć obserwacje i prognozy pogody.

Aby zmienić mapę: kliknij na zielony przycisk z czarnym krzyżykiem, aby powiększyć; na zielony przycisk z myślnikiem, aby pomniejszyć; na zielone strzałki, aby przejść do map sąsiednich.


METAR-TAF: